Time;durP1;ratioP1;P1;durP2;ratioP2;P2;SDS_P1;SDS_P2;PMS_P1;PMS_P2;Temp;Humidity;BMP_temperature;BMP_pressure;BME280_temperature;BME280_humidity;BME280_pressure;Samples;Min_cycle;Max_cycle;Signal;HPM_P1;HPM_P2
2021/03/25 00:01:43;;;;;;;50.03;17.45;;;;;;;6.84;87.78;101496.25;4960886;28;20124;-75
2021/03/25 00:04:09;;;;;;;47.85;18.70;;;;;;;6.83;87.87;101497.19;4996338;28;20026;-75
2021/03/25 00:06:37;;;;;;;50.95;17.95;;;;;;;6.84;87.92;101496.25;4978670;28;20034;-75
2021/03/25 00:09:14;;;;;;;45.90;17.67;;;;;;;6.83;88.04;101499.84;4971948;28;20031;-75
2021/03/25 00:11:39;;;;;;;45.65;18.05;;;;;;;6.83;88.17;101499.84;4979101;28;20029;-75
2021/03/25 00:14:04;;;;;;;45.22;17.45;;;;;;;6.79;88.21;101493.72;4985563;28;20532;-75
2021/03/25 00:16:30;;;;;;;45.58;17.90;;;;;;;6.77;88.26;101490.28;4972151;28;21446;-75
2021/03/25 00:18:55;;;;;;;42.45;16.85;;;;;;;6.75;88.43;101485.91;4987103;28;20030;-75
2021/03/25 00:21:21;;;;;;;46.45;17.95;;;;;;;6.69;88.44;101486.13;4978021;28;20087;-75
2021/03/25 00:23:46;;;;;;;51.13;17.75;;;;;;;6.67;88.72;101482.63;4987566;28;20106;-75
2021/03/25 00:26:11;;;;;;;42.20;17.08;;;;;;;6.65;88.59;101487.19;4986716;28;20042;-75
2021/03/25 00:28:37;;;;;;;43.80;16.73;;;;;;;6.62;88.74;101481.94;4991991;28;20023;-75
2021/03/25 00:31:02;;;;;;;42.92;17.73;;;;;;;6.60;88.68;101483.81;4989423;28;20092;-75
2021/03/25 00:33:28;;;;;;;41.30;16.15;;;;;;;6.56;88.84;101490.16;4982020;28;20034;-75
2021/03/25 00:35:53;;;;;;;44.80;17.27;;;;;;;6.52;89.08;101489.41;4986147;28;20629;-75
2021/03/25 00:38:19;;;;;;;45.67;16.55;;;;;;;6.47;89.17;101481.56;4958894;28;20046;-75
2021/03/25 00:40:48;;;;;;;42.92;17.63;;;;;;;6.44;89.23;101486.13;4989309;28;20041;-75
2021/03/25 00:43:15;;;;;;;45.35;17.00;;;;;;;6.43;89.45;101482.59;4987051;28;20054;-75
2021/03/25 00:45:44;;;;;;;51.20;18.02;;;;;;;6.40;89.59;101479.16;4986433;28;20037;-75
2021/03/25 00:48:13;;;;;;;44.63;17.40;;;;;;;6.36;89.76;101483.72;4971504;28;20053;-75
2021/03/25 00:51:07;;;;;;;46.20;17.38;;;;;;;6.33;90.08;101470.50;4982198;28;20060;-75
2021/03/25 00:53:35;;;;;;;45.65;18.05;;;;;;;6.31;90.10;101474.13;4967923;28;20109;-75
2021/03/25 00:56:02;;;;;;;49.17;19.25;;;;;;;6.30;90.12;101472.38;4969264;28;20072;-75
2021/03/25 00:58:27;;;;;;;41.95;16.75;;;;;;;6.29;90.48;101476.00;4984063;28;20040;-75
2021/03/25 01:00:55;;;;;;;49.75;18.63;;;;;;;6.28;90.30;101475.13;4983345;28;20041;-75
2021/03/25 01:03:23;;;;;;;46.40;17.08;;;;;;;6.26;90.30;101474.31;4975755;28;20121;-76
2021/03/25 01:05:49;;;;;;;48.90;18.45;;;;;;;6.23;90.51;101473.56;4975221;28;20093;-75
2021/03/25 01:08:14;;;;;;;42.08;16.77;;;;;;;6.18;90.55;101470.16;4957716;28;20026;-75
2021/03/25 01:10:45;;;;;;;40.50;16.55;;;;;;;6.15;90.71;101463.16;4957911;28;20496;-75
2021/03/25 01:13:26;;;;;;;51.20;18.27;;;;;;;6.13;90.75;101454.31;4993610;28;20379;-75
2021/03/25 01:15:52;;;;;;;45.25;18.48;;;;;;;6.07;90.86;101449.19;4975680;28;20044;-75
2021/03/25 01:18:18;;;;;;;45.53;18.55;;;;;;;6.01;91.15;101450.28;4982600;28;20118;-75
2021/03/25 01:20:45;;;;;;;49.58;18.48;;;;;;;5.97;91.42;101446.00;4990803;28;20491;-75
2021/03/25 01:23:12;;;;;;;51.80;19.25;;;;;;;5.95;91.67;101441.63;4977006;28;20550;-75
2021/03/25 01:25:38;;;;;;;47.45;19.90;;;;;;;5.91;91.85;101435.53;4977347;28;20022;-75
2021/03/25 01:28:06;;;;;;;50.08;19.58;;;;;;;5.90;92.17;101431.13;4974052;28;20065;-75
2021/03/25 01:30:34;;;;;;;45.88;17.98;;;;;;;5.87;92.26;101432.97;4982370;28;20511;-75
2021/03/25 01:33:02;;;;;;;42.70;18.42;;;;;;;5.84;92.68;101425.97;4973140;28;20056;-75
2021/03/25 01:35:29;;;;;;;42.53;18.33;;;;;;;5.83;92.83;101428.69;4993868;28;20117;-75
2021/03/25 01:37:54;;;;;;;44.45;16.75;;;;;;;5.83;92.88;101418.03;4958106;28;20043;-74
2021/03/25 01:40:29;;;;;;;52.45;19.70;;;;;;;5.82;93.05;101421.59;4975020;28;20179;-75
2021/03/25 01:43:10;;;;;;;45.13;17.33;;;;;;;5.79;93.08;101411.94;4961196;28;20038;-75
2021/03/25 01:45:36;;;;;;;55.63;18.88;;;;;;;5.78;93.20;101414.66;4974826;28;20025;-75
2021/03/25 01:48:04;;;;;;;45.20;17.77;;;;;;;5.79;93.34;101413.72;4980356;28;20040;-75
2021/03/25 01:50:31;;;;;;;46.25;17.75;;;;;;;5.73;93.63;101411.28;4982249;28;20626;-75
2021/03/25 01:53:18;;;;;;;40.42;16.50;;;;;;;5.69;93.83;101411.34;4962231;28;20093;-75
2021/03/25 01:56:15;;;;;;;41.38;17.58;;;;;;;5.67;94.07;101412.34;4977920;28;20042;-75
2021/03/25 01:59:12;;;;;;;44.58;18.40;;;;;;;5.65;94.31;101404.41;4973091;28;20041;-75
2021/03/25 02:02:03;;;;;;;47.38;16.60;;;;;;;5.67;94.34;101407.91;4987544;28;20057;-74
2021/03/25 02:04:44;;;;;;;44.22;16.88;;;;;;;5.60;94.46;101405.47;4976404;28;20026;-75
2021/03/25 02:07:20;;;;;;;48.03;17.70;;;;;;;5.57;94.83;101406.44;4974426;28;20565;-75
2021/03/25 02:10:19;;;;;;;42.67;17.45;;;;;;;5.56;95.10;101404.69;4990506;28;20042;-75
2021/03/25 02:12:57;;;;;;;45.65;18.45;;;;;;;5.56;95.22;101410.00;4970022;28;20034;-74
2021/03/25 02:15:35;;;;;;;44.03;18.50;;;;;;;5.56;95.65;101409.13;4958243;28;20026;-75
2021/03/25 02:18:12;;;;;;;63.33;20.33;;;;;;;5.56;95.77;101410.00;4974310;28;20077;-75
2021/03/25 02:20:55;;;;;;;50.35;19.75;;;;;;;5.57;96.15;101403.78;4975579;28;20034;-74
2021/03/25 02:23:42;;;;;;;52.08;20.63;;;;;;;5.62;96.49;101404.50;4988967;28;20035;-75
2021/03/25 02:26:14;;;;;;;63.42;23.50;;;;;;;5.67;96.79;101405.22;4994042;28;20065;-74
2021/03/25 02:29:06;;;;;;;72.32;24.42;;;;;;;5.78;97.71;101406.66;4970013;28;20049;-75
2021/03/25 02:31:35;;;;;;;79.22;26.33;;;;;;;5.81;98.88;101414.53;4989381;28;20080;-75
2021/03/25 02:34:11;;;;;;;69.40;26.30;;;;;;;6.05;99.56;101425.25;4975880;28;20042;-74
2021/03/25 02:36:48;;;;;;;71.03;26.92;;;;;;;6.04;99.92;101422.66;4972607;28;20027;-74
2021/03/25 02:39:25;;;;;;;67.78;26.33;;;;;;;5.91;100.00;101416.88;4969759;28;20061;-74
2021/03/25 02:41:56;;;;;;;69.38;26.77;;;;;;;5.90;100.00;101419.59;4972667;28;20664;-74
2021/03/25 02:44:31;;;;;;;72.10;29.13;;;;;;;5.95;100.00;101406.97;4971458;28;20089;-74
2021/03/25 02:47:04;;;;;;;73.30;28.50;;;;;;;5.98;100.00;101422.88;4985240;28;20117;-74
2021/03/25 02:49:36;;;;;;;72.70;26.65;;;;;;;5.95;100.00;101412.31;4985438;28;20030;-74
2021/03/25 02:52:16;;;;;;;69.60;26.93;;;;;;;5.97;100.00;101415.81;4979611;28;20591;-73
2021/03/25 02:54:48;;;;;;;74.63;27.77;;;;;;;5.96;100.00;101406.94;4978849;28;20292;-74
2021/03/25 02:57:25;;;;;;;60.40;24.80;;;;;;;5.98;100.00;101412.22;4978980;28;20049;-74
2021/03/25 02:59:55;;;;;;;60.65;23.30;;;;;;;6.00;100.00;101415.69;4973328;28;20038;-74
2021/03/25 03:02:31;;;;;;;71.45;24.30;;;;;;;6.03;100.00;101415.59;4982428;28;20574;-75
2021/03/25 03:05:05;;;;;;;68.70;24.17;;;;;;;6.05;100.00;101419.06;4974294;28;20072;-74
2021/03/25 03:07:43;;;;;;;63.88;24.05;;;;;;;6.02;100.00;101411.19;4987986;28;20093;-74
2021/03/25 03:10:35;;;;;;;54.95;23.00;;;;;;;5.99;100.00;101408.59;4976884;28;20038;-74
2021/03/25 03:13:02;;;;;;;67.88;24.80;;;;;;;5.98;100.00;101407.78;4953298;28;20031;-74
2021/03/25 03:15:41;;;;;;;62.05;22.52;;;;;;;6.00;100.00;101411.22;4975354;28;20034;-74
2021/03/25 03:18:25;;;;;;;61.67;24.48;;;;;;;6.00;100.00;101405.91;4986767;28;20042;-74
2021/03/25 03:21:04;;;;;;;61.53;23.02;;;;;;;6.03;100.00;101411.13;4991438;28;20518;-74
2021/03/25 03:23:51;;;;;;;59.15;24.52;;;;;;;6.03;100.00;101408.47;4970280;28;20045;-74
2021/03/25 03:26:31;;;;;;;62.17;23.80;;;;;;;6.06;100.00;101407.47;4980566;28;20026;-74
2021/03/25 03:29:06;;;;;;;61.13;23.27;;;;;;;6.04;100.00;101410.22;4975405;28;20030;-74
2021/03/25 03:31:47;;;;;;;63.88;25.45;;;;;;;6.08;100.00;101402.97;4977041;28;20499;-74
2021/03/25 03:34:25;;;;;;;70.35;25.55;;;;;;;6.05;100.00;101400.41;4962164;28;20030;-74
2021/03/25 03:36:58;;;;;;;65.20;26.92;;;;;;;6.08;100.00;101405.66;4970943;28;20034;-74
2021/03/25 03:39:27;;;;;;;73.88;28.77;;;;;;;6.11;100.00;101399.34;4977452;28;20038;-74
2021/03/25 03:41:57;;;;;;;64.72;26.27;;;;;;;6.07;100.00;101402.09;4971109;28;20648;-74
2021/03/25 03:44:30;;;;;;;70.53;27.85;;;;;;;6.13;100.00;101398.34;4974267;28;20124;-74
2021/03/25 03:46:58;;;;;;;77.15;30.25;;;;;;;6.08;100.00;101403.84;4977182;28;20578;-74
2021/03/25 03:49:33;;;;;;;65.55;26.52;;;;;;;6.07;100.00;101407.44;4974259;28;20718;-74
2021/03/25 03:52:08;;;;;;;67.25;27.67;;;;;;;6.09;100.00;101415.38;4983585;28;20391;-74
2021/03/25 03:54:39;;;;;;;71.10;28.58;;;;;;;6.09;100.00;101410.06;4975395;28;20063;-74
2021/03/25 03:57:29;;;;;;;77.25;32.03;;;;;;;6.09;100.00;101413.59;4992298;28;20112;-74
2021/03/25 04:00:08;;;;;;;75.13;30.20;;;;;;;6.09;100.00;101420.72;4976997;28;20048;-74
2021/03/25 04:02:45;;;;;;;72.60;27.73;;;;;;;6.07;100.00;101417.22;4985217;28;20038;-74
2021/03/25 04:05:49;;;;;;;68.63;27.88;;;;;;;6.08;100.00;101424.28;4987184;28;20046;-74
2021/03/25 04:08:35;;;;;;;72.07;28.48;;;;;;;6.09;100.00;101418.03;4971166;28;20030;-74
2021/03/25 04:11:25;;;;;;;63.65;29.40;;;;;;;6.10;100.00;101414.47;4986536;28;20034;-74
2021/03/25 04:14:34;;;;;;;70.93;29.60;;;;;;;6.12;100.00;101425.91;4974257;28;20041;-74
2021/03/25 04:17:18;;;;;;;70.95;28.00;;;;;;;6.12;100.00;101415.25;4981416;28;20034;-74
2021/03/25 04:19:49;;;;;;;72.38;28.90;;;;;;;6.14;100.00;101416.09;4981021;28;20026;-74
2021/03/25 04:22:43;;;;;;;73.97;28.48;;;;;;;6.15;100.00;101417.84;4981362;28;20408;-74
2021/03/25 04:25:15;;;;;;;69.50;30.35;;;;;;;6.15;100.00;101420.50;4991028;28;20194;-75
2021/03/25 04:27:48;;;;;;;69.15;29.00;;;;;;;6.16;100.00;101411.59;4971010;28;20117;-74
2021/03/25 04:30:20;;;;;;;79.43;29.88;;;;;;;6.17;100.00;101417.78;4980490;28;20129;-74
2021/03/25 04:32:48;;;;;;;69.63;30.27;;;;;;;6.16;99.91;101414.25;4987997;28;20081;-74
2021/03/25 04:35:14;;;;;;;67.03;27.50;;;;;;;6.16;99.99;101416.91;4951805;28;20030;-74
2021/03/25 04:37:41;;;;;;;73.30;29.65;;;;;;;6.15;99.89;101420.50;4983496;28;20068;-74
2021/03/25 04:40:10;;;;;;;71.07;28.30;;;;;;;6.15;99.67;101420.50;4973234;28;20413;-74
2021/03/25 04:42:43;;;;;;;83.03;31.45;;;;;;;6.13;99.74;101422.34;4955381;28;20035;-74
2021/03/25 04:45:24;;;;;;;75.88;31.60;;;;;;;6.11;100.00;101426.84;4990616;28;20035;-74
2021/03/25 04:47:53;;;;;;;78.40;31.17;;;;;;;6.09;100.00;101426.03;4991507;28;20136;-74
2021/03/25 04:50:37;;;;;;;81.72;31.70;;;;;;;6.07;100.00;101427.88;4972083;28;20034;-74
2021/03/25 04:53:19;;;;;;;78.45;31.05;;;;;;;6.05;100.00;101416.38;4987505;28;20026;-74
2021/03/25 04:55:44;;;;;;;77.22;31.77;;;;;;;6.03;100.00;101412.94;4995071;28;20113;-75
2021/03/25 04:58:18;;;;;;;85.45;32.88;;;;;;;6.05;100.00;101413.72;4979952;28;20121;-74
2021/03/25 05:00:44;;;;;;;83.78;32.47;;;;;;;6.03;100.00;101415.59;4991048;28;20066;-75
2021/03/25 05:03:17;;;;;;;76.53;32.13;;;;;;;6.02;100.00;101408.53;4971487;28;20065;-74
2021/03/25 05:05:42;;;;;;;80.80;31.73;;;;;;;6.04;100.00;101422.66;4990212;28;20063;-74
2021/03/25 05:08:16;;;;;;;81.72;32.45;;;;;;;6.29;100.00;101434.22;4993485;28;20034;-74
2021/03/25 05:10:45;;;;;;;103.22;40.45;;;;;;;6.34;100.00;101432.25;4995552;28;20456;-74
2021/03/25 05:13:35;;;;;;;108.40;40.08;;;;;;;6.30;100.00;101435.94;4995479;28;20435;-75
2021/03/25 05:16:23;;;;;;;104.75;41.13;;;;;;;6.45;100.00;101438.06;4981832;28;20038;-74
2021/03/25 05:19:01;;;;;;;108.72;42.00;;;;;;;6.46;100.00;101441.63;4973642;28;20038;-74
2021/03/25 05:21:35;;;;;;;109.55;42.35;;;;;;;6.59;100.00;101434.03;4966008;28;20116;-74
2021/03/25 05:24:05;;;;;;;114.07;44.70;;;;;;;6.53;100.00;101436.94;4979645;28;20030;-74
2021/03/25 05:26:41;;;;;;;108.82;42.08;;;;;;;6.59;100.00;101440.25;4984987;28;20057;-74
2021/03/25 05:29:08;;;;;;;116.95;42.90;;;;;;;6.68;100.00;101444.34;4976675;28;20100;-74
2021/03/25 05:31:37;;;;;;;116.20;45.28;;;;;;;6.66;100.00;101441.78;4995904;28;20030;-74
2021/03/25 05:34:07;;;;;;;116.10;44.08;;;;;;;6.71;100.00;101449.59;4988475;28;20041;-74
2021/03/25 05:36:33;;;;;;;103.93;42.92;;;;;;;6.66;100.00;101440.91;4990280;28;20069;-74
2021/03/25 05:39:00;;;;;;;116.40;45.42;;;;;;;6.68;100.00;101439.91;4989203;28;20479;-74
2021/03/25 05:41:34;;;;;;;124.38;46.15;;;;;;;6.70;100.00;101450.53;4984001;28;20033;-74
2021/03/25 05:44:24;;;;;;;117.07;45.22;;;;;;;6.72;100.00;101456.69;4971066;28;20088;-74
2021/03/25 05:46:58;;;;;;;117.22;48.47;;;;;;;6.70;100.00;101463.84;4992955;28;20056;-74
2021/03/25 05:49:36;;;;;;;128.68;46.95;;;;;;;6.71;100.00;101452.28;4978014;28;20048;-74
2021/03/25 05:52:28;;;;;;;120.22;45.95;;;;;;;6.66;100.00;101468.44;4972456;28;20030;-74
2021/03/25 05:55:00;;;;;;;110.33;44.70;;;;;;;6.68;100.00;101463.03;4990344;28;20526;-74
2021/03/25 05:57:37;;;;;;;117.72;43.70;;;;;;;6.71;100.00;101462.94;4996324;28;20081;-75
2021/03/25 06:00:18;;;;;;;124.97;46.67;;;;;;;6.73;100.00;101463.72;4992005;28;20049;-74
2021/03/25 06:02:50;;;;;;;125.15;46.72;;;;;;;6.73;100.00;101463.72;4980398;28;20085;-74
2021/03/25 06:05:16;;;;;;;118.30;46.95;;;;;;;6.70;100.00;101461.19;4989716;28;20076;-74
2021/03/25 06:07:56;;;;;;;121.47;45.60;;;;;;;6.74;100.00;101462.81;4989579;28;20065;-75
2021/03/25 06:10:40;;;;;;;126.97;45.72;;;;;;;6.72;100.00;101467.34;4974835;28;20377;-74
2021/03/25 06:13:28;;;;;;;121.10;46.00;;;;;;;6.78;100.00;101475.13;4976583;28;20069;-74
2021/03/25 06:16:05;;;;;;;119.03;45.15;;;;;;;6.78;100.00;101480.47;4979738;28;20042;-74
2021/03/25 06:18:59;;;;;;;114.45;45.90;;;;;;;6.83;100.00;101483.84;4988976;28;20030;-74
2021/03/25 06:21:49;;;;;;;121.43;46.80;;;;;;;6.92;100.00;101483.47;4992904;28;20049;-75
2021/03/25 06:24:49;;;;;;;111.50;47.17;;;;;;;7.01;100.00;101483.16;4986211;28;20038;-75
2021/03/25 06:27:24;;;;;;;122.53;49.85;;;;;;;7.15;100.00;101485.31;4983390;28;20058;-74
2021/03/25 06:29:53;;;;;;;126.70;51.15;;;;;;;7.41;100.00;101493.16;4958744;28;20439;-74
2021/03/25 06:32:30;;;;;;;125.50;49.28;;;;;;;7.35;100.00;101493.41;4995542;28;20117;-75
2021/03/25 06:35:04;;;;;;;114.78;47.38;;;;;;;7.48;100.00;101499.16;4988601;28;20038;-75
2021/03/25 06:37:42;;;;;;;126.93;48.95;;;;;;;7.49;100.00;101496.41;4990881;28;20447;-75
2021/03/25 06:40:30;;;;;;;117.40;47.08;;;;;;;7.57;100.00;101493.44;4972098;28;20026;-75
2021/03/25 06:43:29;;;;;;;118.65;50.00;;;;;;;7.71;100.00;101496.47;4976037;28;20129;-75
2021/03/25 06:46:06;;;;;;;114.22;48.92;;;;;;;7.84;100.00;101497.69;4979749;28;20695;-75
2021/03/25 06:48:42;;;;;;;119.03;47.15;;;;;;;7.94;100.00;101495.50;4966029;28;20026;-75
2021/03/25 06:51:18;;;;;;;123.93;49.22;;;;;;;7.98;100.00;101491.78;4983619;28;20041;-75
2021/03/25 06:53:45;;;;;;;116.32;48.80;;;;;;;8.07;100.00;101484.25;4967379;28;20038;-75
2021/03/25 06:56:15;;;;;;;123.03;47.47;;;;;;;8.18;100.00;101485.59;4984065;28;20695;-75
2021/03/25 06:58:49;;;;;;;126.60;47.67;;;;;;;8.44;99.72;101493.44;4989642;28;20109;-75
2021/03/25 07:01:39;;;;;;;120.95;48.92;;;;;;;8.61;98.93;101496.22;4988625;28;20068;-75
2021/03/25 07:04:11;;;;;;;103.60;45.63;;;;;;;8.74;98.17;101489.41;4968579;28;20129;-74
2021/03/25 07:06:37;;;;;;;120.40;49.65;;;;;;;8.84;97.09;101504.09;4956791;28;20603;-75
2021/03/25 07:09:04;;;;;;;111.57;46.40;;;;;;;8.85;96.35;101499.63;4973428;28;20030;-75
2021/03/25 07:11:31;;;;;;;106.80;45.00;;;;;;;8.79;97.19;101506.13;4982803;28;20628;-75
2021/03/25 07:14:07;;;;;;;109.40;46.20;;;;;;;8.79;97.35;101500.78;4976913;28;20308;-74
2021/03/25 07:16:37;;;;;;;109.75;47.70;;;;;;;8.87;96.95;101501.31;4991871;28;20045;-75
2021/03/25 07:19:12;;;;;;;102.07;44.50;;;;;;;8.79;97.09;101505.25;4983689;28;20049;-75
2021/03/25 07:21:45;;;;;;;105.40;47.50;;;;;;;8.80;97.18;101501.66;4986801;28;20577;-75
2021/03/25 07:24:26;;;;;;;100.30;44.20;;;;;;;8.79;97.25;101498.09;4988436;28;20072;-74
2021/03/25 07:26:59;;;;;;;108.22;44.85;;;;;;;8.71;97.72;101505.59;4987868;28;20082;-75
2021/03/25 07:29:33;;;;;;;107.45;46.63;;;;;;;8.70;98.11;101509.19;4954418;28;20034;-75
2021/03/25 07:32:05;;;;;;;103.07;45.35;;;;;;;8.73;97.92;101506.41;4974018;28;20554;-74
2021/03/25 07:34:38;;;;;;;97.43;44.67;;;;;;;8.69;97.46;101506.59;4971340;28;20038;-75
2021/03/25 07:37:07;;;;;;;101.88;44.85;;;;;;;8.76;97.28;101505.41;4990662;28;20120;-75
2021/03/25 07:39:49;;;;;;;104.05;45.58;;;;;;;8.78;96.73;101507.06;4973885;28;20025;-74
2021/03/25 07:42:33;;;;;;;108.78;46.08;;;;;;;8.80;96.91;101512.34;4969816;28;20034;-75
2021/03/25 07:45:26;;;;;;;109.65;47.42;;;;;;;8.92;97.83;101515.34;4969398;28;20439;-74
2021/03/25 07:47:53;;;;;;;105.78;46.00;;;;;;;8.98;98.34;101521.38;4971175;28;20030;-74
2021/03/25 07:50:27;;;;;;;100.32;45.88;;;;;;;9.27;97.14;101532.50;4977587;28;20031;-75
2021/03/25 07:52:53;;;;;;;112.13;46.70;;;;;;;9.33;96.48;101528.66;4987992;28;20030;-75
2021/03/25 07:55:18;;;;;;;99.50;43.05;;;;;;;9.37;96.40;101534.75;4993065;28;20742;-75
2021/03/25 07:57:46;;;;;;;106.50;45.03;;;;;;;9.47;96.44;101523.53;4978370;28;20038;-75
2021/03/25 08:00:25;;;;;;;110.20;46.13;;;;;;;9.58;96.43;101534.63;4992937;28;20038;-75
2021/03/25 08:03:10;;;;;;;90.20;41.95;;;;;;;9.77;95.13;101533.72;4987952;28;20034;-75
2021/03/25 08:05:37;;;;;;;96.05;41.65;;;;;;;9.96;94.30;101534.59;4972065;28;20050;-75
2021/03/25 08:08:33;;;;;;;99.70;41.25;;;;;;;10.11;93.50;101533.84;4994858;28;20710;-75
2021/03/25 08:11:17;;;;;;;96.45;40.47;;;;;;;10.18;92.92;101535.31;4979452;28;20128;-75
2021/03/25 08:13:55;;;;;;;89.70;41.10;;;;;;;10.37;93.00;101536.09;4985458;28;20049;-75
2021/03/25 08:16:22;;;;;;;93.45;41.90;;;;;;;10.29;92.17;101541.00;4991766;28;20057;-75
2021/03/25 08:18:57;;;;;;;90.75;42.17;;;;;;;10.42;92.31;101539.47;4975218;28;20622;-75
2021/03/25 08:21:41;;;;;;;86.85;41.17;;;;;;;10.49;92.06;101546.22;4971461;28;20035;-74
2021/03/25 08:24:28;;;;;;;98.68;42.22;;;;;;;10.42;91.19;101539.47;4988551;28;20038;-75
2021/03/25 08:27:01;;;;;;;87.00;38.08;;;;;;;10.46;90.46;101538.34;4976946;28;20743;-74
2021/03/25 08:29:48;;;;;;;82.10;36.58;;;;;;;10.50;90.51;101533.69;4982102;28;20125;-75
2021/03/25 08:32:30;;;;;;;82.78;38.10;;;;;;;10.50;90.96;101531.00;4991777;28;20042;-75
2021/03/25 08:35:15;;;;;;;78.72;36.13;;;;;;;10.62;90.25;101530.34;4981916;28;20030;-75
2021/03/25 08:38:18;;;;;;;84.72;38.35;;;;;;;10.60;91.30;101539.47;4994516;28;20048;-75
2021/03/25 08:40:55;;;;;;;83.70;37.85;;;;;;;10.83;90.02;101555.25;4991043;28;20031;-75
2021/03/25 08:43:29;;;;;;;82.80;35.63;;;;;;;11.05;88.65;101561.22;4989077;28;20034;-75
2021/03/25 08:46:08;;;;;;;76.90;34.80;;;;;;;11.31;87.62;101563.38;4967161;28;20027;-75
2021/03/25 08:48:56;;;;;;;74.45;33.45;;;;;;;11.76;85.83;101559.16;4990779;28;20041;-75
2021/03/25 08:51:42;;;;;;;75.78;34.17;;;;;;;12.06;84.29;101564.63;4990201;28;20484;-75
2021/03/25 08:54:12;;;;;;;80.53;36.80;;;;;;;12.25;83.37;101567.13;4969194;28;20038;-75
2021/03/25 08:56:44;;;;;;;84.60;35.67;;;;;;;12.29;81.72;101566.00;4991487;28;20041;-75
2021/03/25 08:59:32;;;;;;;80.70;36.70;;;;;;;12.37;80.94;101570.00;4990062;28;20048;-75
2021/03/25 09:02:14;;;;;;;78.53;36.10;;;;;;;12.25;81.82;101564.44;4998273;28;20110;-75
2021/03/25 09:04:57;;;;;;;81.45;38.28;;;;;;;12.24;83.41;101566.28;4984891;28;20030;-75
2021/03/25 09:07:23;;;;;;;;;;;;;;;12.22;82.11;101564.63;4986836;28;20162;-75
2021/03/25 09:09:54;;;;;;;74.70;33.05;;;;;;;12.34;80.74;101558.53;4991855;28;20012;-75
2021/03/25 09:12:23;;;;;;;76.80;34.45;;;;;;;12.53;81.08;101561.88;4991513;28;20073;-75
2021/03/25 09:14:50;;;;;;;73.28;34.15;;;;;;;12.87;79.57;101572.38;4976811;28;20042;-75
2021/03/25 09:17:19;;;;;;;84.60;37.03;;;;;;;13.28;78.47;101579.78;4989022;28;20030;-75
2021/03/25 09:19:57;;;;;;;76.30;33.40;;;;;;;13.48;75.91;101571.34;4987211;28;20605;-75
2021/03/25 09:22:35;;;;;;;73.22;33.08;;;;;;;13.82;73.99;101571.91;4987110;28;20080;-75
2021/03/25 09:25:27;;;;;;;65.93;31.40;;;;;;;13.87;73.58;101572.47;4973403;28;20453;-74
2021/03/25 09:28:07;;;;;;;72.60;33.17;;;;;;;13.64;75.20;101574.78;4984416;28;20688;-75
2021/03/25 09:31:03;;;;;;;68.25;31.75;;;;;;;13.76;75.17;101567.75;4988884;28;20033;-75
2021/03/25 09:33:51;;;;;;;67.00;31.52;;;;;;;13.98;73.83;101586.13;4973827;28;20042;-75
2021/03/25 09:36:16;;;;;;;73.60;32.38;;;;;;;14.13;72.57;101577.03;4983594;28;20472;-75
2021/03/25 09:38:43;;;;;;;67.43;29.60;;;;;;;14.00;72.08;101568.88;4988538;28;20047;-75
2021/03/25 09:41:37;;;;;;;65.72;29.25;;;;;;;13.56;73.61;101573.56;5000919;28;20080;-75
2021/03/25 09:44:05;;;;;;;;;;;;;;;13.90;74.16;101569.56;4976586;28;20388;-74
2021/03/25 09:46:50;;;;;;;57.17;27.30;;;;;;;14.08;74.95;101565.66;4980460;28;19920;-75
2021/03/25 09:49:24;;;;;;;70.88;30.27;;;;;;;14.06;72.15;101567.59;4986109;28;20134;-75
2021/03/25 09:52:12;;;;;;;58.83;30.10;;;;;;;14.09;73.50;101562.88;4991941;28;20613;-75
2021/03/25 09:54:41;;;;;;;63.15;29.10;;;;;;;13.98;72.83;101556.44;4986033;28;20391;-75
2021/03/25 09:57:36;;;;;;;65.50;29.88;;;;;;;13.98;72.24;101556.44;5003538;28;20120;-75
2021/03/25 10:00:24;;;;;;;68.50;31.40;;;;;;;14.04;73.67;101566.84;4986778;28;20088;-75
2021/03/25 10:02:58;;;;;;;62.63;30.38;;;;;;;14.04;74.12;101569.53;5002065;28;20042;-75
2021/03/25 10:05:35;;;;;;;64.28;30.55;;;;;;;14.07;74.02;101561.25;4991717;28;20116;-75
2021/03/25 10:08:14;;;;;;;59.15;29.45;;;;;;;14.19;73.45;101561.28;4974598;28;20042;-75
2021/03/25 10:10:44;;;;;;;60.83;28.92;;;;;;;14.22;72.35;101560.22;4985681;28;20027;-75
2021/03/25 10:13:13;;;;;;;64.47;28.67;;;;;;;14.00;72.37;101555.38;4983745;28;20484;-75
2021/03/25 10:15:56;;;;;;;63.75;29.55;;;;;;;14.01;72.68;101562.47;4984013;28;21142;-75
2021/03/25 10:18:25;;;;;;;61.50;28.27;;;;;;;13.95;71.05;101559.34;4978773;28;20391;-75
2021/03/25 10:21:09;;;;;;;54.45;26.48;;;;;;;13.85;73.11;101558.19;4988806;28;20030;-75
2021/03/25 10:23:50;;;;;;;61.30;29.02;;;;;;;14.09;73.76;101554.75;4986524;28;20026;-75
2021/03/25 10:26:30;;;;;;;63.47;31.52;;;;;;;14.17;72.05;101557.84;4990572;28;20045;-75
2021/03/25 10:29:02;;;;;;;62.35;28.23;;;;;;;14.40;73.69;101550.94;4995755;28;20038;-75
2021/03/25 10:31:38;;;;;;;57.85;27.45;;;;;;;14.53;72.26;101559.94;4986658;28;20085;-75
2021/03/25 10:34:29;;;;;;;62.00;27.35;;;;;;;14.68;71.10;101559.88;4972108;28;20041;-74
2021/03/25 10:37:29;;;;;;;57.15;26.10;;;;;;;14.60;69.17;101570.34;4992152;28;20045;-75
2021/03/25 10:40:13;;;;;;;49.80;23.67;;;;;;;14.57;68.22;101561.47;4988108;28;20511;-75
2021/03/25 10:42:42;;;;;;;54.45;24.92;;;;;;;14.66;69.15;101553.72;4971571;28;20035;-75
2021/03/25 10:45:26;;;;;;;48.33;25.63;;;;;;;14.79;69.30;101560.88;4988524;28;20062;-74
2021/03/25 10:47:56;;;;;;;56.13;23.95;;;;;;;14.75;69.02;101563.91;4987542;28;20038;-75
2021/03/25 10:50:33;;;;;;;49.47;22.45;;;;;;;14.84;67.19;101557.84;4989109;28;20050;-75
2021/03/25 10:53:02;;;;;;;49.08;22.85;;;;;;;14.95;68.25;101555.28;4993996;28;20503;-75
2021/03/25 10:55:46;;;;;;;46.30;23.17;;;;;;;15.28;69.30;101558.31;4980378;28;20092;-75
2021/03/25 10:58:27;;;;;;;47.05;21.52;;;;;;;15.21;65.04;101554.31;4988824;28;20030;-75
2021/03/25 11:01:17;;;;;;;46.75;19.73;;;;;;;15.10;66.58;101553.34;4964976;28;20047;-75
2021/03/25 11:03:43;;;;;;;42.30;21.40;;;;;;;15.07;67.08;101551.72;4969443;28;20041;-75
2021/03/25 11:06:19;;;;;;;49.28;19.67;;;;;;;15.12;67.38;101544.13;4955884;28;20084;-74
2021/03/25 11:08:45;;;;;;;40.90;18.00;;;;;;;15.15;65.92;101552.03;4972792;28;20086;-75
2021/03/25 11:11:13;;;;;;;53.72;19.90;;;;;;;15.29;67.12;101548.38;4986493;28;20058;-75
2021/03/25 11:13:40;;;;;;;40.42;17.92;;;;;;;15.47;64.56;101548.91;4971072;28;20566;-75
2021/03/25 11:16:17;;;;;;;40.90;18.23;;;;;;;15.68;66.35;101539.25;4989735;28;20394;-75
2021/03/25 11:18:56;;;;;;;46.13;20.85;;;;;;;15.58;64.04;101546.31;4985494;28;20113;-75
2021/03/25 11:21:36;;;;;;;40.00;18.70;;;;;;;15.62;63.78;101528.88;4953188;28;20754;-75
2021/03/25 11:24:07;;;;;;;36.70;17.92;;;;;;;15.59;66.17;101539.94;4971495;28;20034;-75
2021/03/25 11:26:34;;;;;;;36.45;17.63;;;;;;;15.61;63.77;101544.28;4990040;28;20049;-75
2021/03/25 11:29:01;;;;;;;40.47;17.98;;;;;;;15.50;63.00;101529.72;4993829;28;20037;-75
2021/03/25 11:31:31;;;;;;;39.97;19.20;;;;;;;15.53;65.78;101534.97;4977614;28;20156;-75
2021/03/25 11:33:57;;;;;;;33.53;17.20;;;;;;;15.61;63.57;101522.63;4984511;28;20034;-75
2021/03/25 11:36:56;;;;;;;28.70;15.32;;;;;;;15.92;61.00;101525.78;4961416;28;20065;-75
2021/03/25 11:39:31;;;;;;;37.88;15.45;;;;;;;15.76;62.15;101520.63;4945277;28;20388;-75
2021/03/25 11:41:59;;;;;;;32.53;16.70;;;;;;;15.70;61.40;101526.47;4988265;28;20581;-75
2021/03/25 11:44:34;;;;;;;30.13;15.25;;;;;;;15.88;63.35;101527.84;4995480;28;20263;-75
2021/03/25 11:47:24;;;;;;;34.25;15.30;;;;;;;15.91;61.71;101524.06;4991901;28;20041;-75
2021/03/25 11:49:51;;;;;;;29.77;16.70;;;;;;;16.02;59.94;101522.28;4977139;28;20487;-75
2021/03/25 11:52:16;;;;;;;38.90;17.25;;;;;;;15.99;59.75;101521.63;4989469;28;20034;-75